Guapore Airport


Codes: SSGR/0
Name: Guapore Airport
City: Guapore
Country: Brazil
Elevation: 1558 ft.

Photos at Guapore Airport


   Photos courtesy of SpottingLog. You can add your own sightings and photos by signing up for a free trial today.



No photos found.

Weather at Guapore Airport


Time (UTC)DescriptionTempratureWindCloud coverageVisibilityPressureHumidity
26-Jun-2024 00:00Light Rain9°C2 mph, SE100%10000m1021hPa97%
26-Jun-2024 03:00Moderate Rain9°C0 mph, N100%0m1020hPa98%
26-Jun-2024 06:00Moderate Rain10°C2 mph, SW100%2370m1017hPa99%
26-Jun-2024 09:00Moderate Rain10°C0 mph, NW100%465m1015hPa100%
26-Jun-2024 12:00Light Rain10°C2 mph, N100%0m1017hPa99%
26-Jun-2024 15:00Light Rain10°C2 mph, W100%10000m1019hPa98%
26-Jun-2024 18:00Light Rain10°C2 mph, W100%10000m1017hPa96%
26-Jun-2024 21:00Light Rain9°C2 mph, W100%10000m1018hPa96%
27-Jun-2024 00:00Overcast Clouds8°C2 mph, W100%10000m1019hPa93%
27-Jun-2024 03:00Broken Clouds7°C2 mph, NW78%10000m1020hPa94%
27-Jun-2024 06:00Scattered Clouds4°C2 mph, NW44%10000m1019hPa98%
27-Jun-2024 09:00Few Clouds4°C2 mph, N17%10000m1018hPa99%
27-Jun-2024 12:00Few Clouds6°C2 mph, N15%10000m1019hPa92%
27-Jun-2024 15:00Clear Sky13°C4 mph, N0%10000m1017hPa61%
27-Jun-2024 18:00Few Clouds15°C4 mph, NW14%10000m1015hPa61%
27-Jun-2024 21:00Overcast Clouds10°C2 mph, N97%10000m1014hPa92%
28-Jun-2024 00:00Overcast Clouds8°C2 mph, N100%10000m1014hPa97%
28-Jun-2024 03:00Few Clouds7°C2 mph, N15%10000m1013hPa94%
28-Jun-2024 06:00Clear Sky6°C2 mph, N10%10000m1011hPa94%
28-Jun-2024 09:00Broken Clouds7°C2 mph, N61%10000m1012hPa89%
28-Jun-2024 12:00Broken Clouds11°C2 mph, N81%10000m1012hPa83%
28-Jun-2024 15:00Overcast Clouds12°C2 mph, NW100%10000m1013hPa84%
28-Jun-2024 18:00Overcast Clouds14°C2 mph, W100%10000m1012hPa82%
28-Jun-2024 21:00Overcast Clouds12°C2 mph, NW100%10000m1014hPa93%
29-Jun-2024 00:00Overcast Clouds11°C2 mph, S97%10000m1016hPa97%
29-Jun-2024 03:00Overcast Clouds9°C2 mph, S95%10000m1017hPa98%
29-Jun-2024 06:00Overcast Clouds9°C2 mph, S98%9591m1018hPa98%
29-Jun-2024 09:00Light Rain7°C4 mph, S100%10000m1020hPa97%
29-Jun-2024 12:00Light Rain6°C4 mph, SW100%10000m1023hPa90%
29-Jun-2024 15:00Overcast Clouds8°C4 mph, SW100%10000m1024hPa63%
29-Jun-2024 18:00Overcast Clouds8°C4 mph, SW100%10000m1023hPa58%
29-Jun-2024 21:00Overcast Clouds4°C2 mph, SW100%10000m1025hPa83%
30-Jun-2024 00:00Overcast Clouds3°C2 mph, W99%10000m1027hPa90%
30-Jun-2024 03:00Overcast Clouds2°C2 mph, W100%10000m1028hPa93%
30-Jun-2024 06:00Overcast Clouds1°C2 mph, W100%10000m1028hPa94%
30-Jun-2024 09:00Overcast Clouds0°C0 mph, W100%10000m1028hPa94%
30-Jun-2024 12:00Overcast Clouds3°C0 mph, SW96%10000m1029hPa79%
30-Jun-2024 15:00Overcast Clouds6°C4 mph, S100%10000m1029hPa61%
30-Jun-2024 18:00Overcast Clouds7°C4 mph, S100%10000m1028hPa62%
30-Jun-2024 21:00Overcast Clouds3°C2 mph, S100%10000m1029hPa87%